sensor_id;sensor_type;location;lat;lon;timestamp;P1;durP1;ratioP1;P2;durP2;ratioP2
10031;SDS011;5056;44.272;19.892;2023-03-01T00:01:35;82.73;;;46.67;;
10031;SDS011;5056;44.272;19.892;2023-03-01T00:06:41;63.20;;;38.90;;
10031;SDS011;5056;44.272;19.892;2023-03-01T00:09:26;60.57;;;37.03;;
10031;SDS011;5056;44.272;19.892;2023-03-01T00:11:53;67.93;;;38.17;;
10031;SDS011;5056;44.272;19.892;2023-03-01T00:14:21;60.73;;;35.13;;
10031;SDS011;5056;44.272;19.892;2023-03-01T00:16:48;57.13;;;33.97;;
10031;SDS011;5056;44.272;19.892;2023-03-01T00:19:30;69.20;;;40.90;;
10031;SDS011;5056;44.272;19.892;2023-03-01T00:21:57;47.10;;;26.93;;
10031;SDS011;5056;44.272;19.892;2023-03-01T00:24:26;49.47;;;27.70;;
10031;SDS011;5056;44.272;19.892;2023-03-01T00:26:53;43.33;;;27.97;;
10031;SDS011;5056;44.272;19.892;2023-03-01T00:29:21;122.07;;;79.90;;
10031;SDS011;5056;44.272;19.892;2023-03-01T00:31:48;56.30;;;35.57;;
10031;SDS011;5056;44.272;19.892;2023-03-01T00:34:18;67.20;;;44.73;;
10031;SDS011;5056;44.272;19.892;2023-03-01T00:36:44;55.00;;;31.27;;
10031;SDS011;5056;44.272;19.892;2023-03-01T00:39:12;47.90;;;28.87;;
10031;SDS011;5056;44.272;19.892;2023-03-01T00:41:42;45.23;;;28.93;;
10031;SDS011;5056;44.272;19.892;2023-03-01T00:46:55;64.83;;;41.77;;
10031;SDS011;5056;44.272;19.892;2023-03-01T00:49:22;349.67;;;199.87;;
10031;SDS011;5056;44.272;19.892;2023-03-01T00:51:52;308.80;;;188.03;;
10031;SDS011;5056;44.272;19.892;2023-03-01T00:54:20;186.90;;;118.47;;
10031;SDS011;5056;44.272;19.892;2023-03-01T00:56:48;133.60;;;85.57;;
10031;SDS011;5056;44.272;19.892;2023-03-01T00:59:15;117.60;;;60.37;;
10031;SDS011;5056;44.272;19.892;2023-03-01T01:01:41;252.13;;;140.50;;
10031;SDS011;5056;44.272;19.892;2023-03-01T01:04:09;243.17;;;140.93;;
10031;SDS011;5056;44.272;19.892;2023-03-01T01:06:37;301.97;;;237.00;;
10031;SDS011;5056;44.272;19.892;2023-03-01T01:09:07;305.07;;;197.53;;
10031;SDS011;5056;44.272;19.892;2023-03-01T01:11:42;106.50;;;56.63;;
10031;SDS011;5056;44.272;19.892;2023-03-01T01:17:08;120.07;;;79.67;;
10031;SDS011;5056;44.272;19.892;2023-03-01T01:19:35;91.73;;;46.27;;
10031;SDS011;5056;44.272;19.892;2023-03-01T01:22:01;80.30;;;42.73;;
10031;SDS011;5056;44.272;19.892;2023-03-01T01:24:28;65.70;;;36.80;;
10031;SDS011;5056;44.272;19.892;2023-03-01T01:26:55;75.70;;;36.20;;
10031;SDS011;5056;44.272;19.892;2023-03-01T01:29:22;77.53;;;45.43;;
10031;SDS011;5056;44.272;19.892;2023-03-01T01:31:50;68.90;;;40.03;;
10031;SDS011;5056;44.272;19.892;2023-03-01T01:34:18;66.23;;;36.20;;
10031;SDS011;5056;44.272;19.892;2023-03-01T01:36:47;55.63;;;32.40;;
10031;SDS011;5056;44.272;19.892;2023-03-01T01:39:14;64.37;;;34.77;;
10031;SDS011;5056;44.272;19.892;2023-03-01T01:41:41;72.93;;;40.23;;
10031;SDS011;5056;44.272;19.892;2023-03-01T01:44:15;72.57;;;39.13;;
10031;SDS011;5056;44.272;19.892;2023-03-01T01:46:44;75.07;;;39.17;;
10031;SDS011;5056;44.272;19.892;2023-03-01T01:49:19;60.20;;;36.40;;
10031;SDS011;5056;44.272;19.892;2023-03-01T01:51:53;65.47;;;37.13;;
10031;SDS011;5056;44.272;19.892;2023-03-01T01:54:25;66.07;;;35.93;;
10031;SDS011;5056;44.272;19.892;2023-03-01T01:56:55;61.53;;;36.30;;
10031;SDS011;5056;44.272;19.892;2023-03-01T01:59:24;65.47;;;36.50;;
10031;SDS011;5056;44.272;19.892;2023-03-01T02:01:51;48.17;;;29.73;;
10031;SDS011;5056;44.272;19.892;2023-03-01T02:04:20;44.07;;;27.60;;
10031;SDS011;5056;44.272;19.892;2023-03-01T02:06:51;42.53;;;27.03;;
10031;SDS011;5056;44.272;19.892;2023-03-01T02:09:22;43.27;;;25.03;;
10031;SDS011;5056;44.272;19.892;2023-03-01T02:11:50;39.13;;;23.87;;
10031;SDS011;5056;44.272;19.892;2023-03-01T02:14:18;43.40;;;24.40;;
10031;SDS011;5056;44.272;19.892;2023-03-01T02:16:45;39.17;;;23.60;;
10031;SDS011;5056;44.272;19.892;2023-03-01T02:19:13;41.90;;;24.10;;
10031;SDS011;5056;44.272;19.892;2023-03-01T02:21:51;43.03;;;26.07;;
10031;SDS011;5056;44.272;19.892;2023-03-01T02:24:24;42.33;;;25.37;;
10031;SDS011;5056;44.272;19.892;2023-03-01T02:26:56;39.63;;;24.03;;
10031;SDS011;5056;44.272;19.892;2023-03-01T02:29:25;40.90;;;24.33;;
10031;SDS011;5056;44.272;19.892;2023-03-01T02:31:53;40.60;;;25.27;;
10031;SDS011;5056;44.272;19.892;2023-03-01T02:34:23;43.30;;;25.90;;
10031;SDS011;5056;44.272;19.892;2023-03-01T02:36:52;36.50;;;22.33;;
10031;SDS011;5056;44.272;19.892;2023-03-01T02:39:22;37.20;;;22.73;;
10031;SDS011;5056;44.272;19.892;2023-03-01T02:41:51;38.27;;;23.93;;
10031;SDS011;5056;44.272;19.892;2023-03-01T02:44:19;49.93;;;27.63;;
10031;SDS011;5056;44.272;19.892;2023-03-01T02:46:50;46.97;;;27.43;;
10031;SDS011;5056;44.272;19.892;2023-03-01T02:49:18;42.37;;;25.27;;
10031;SDS011;5056;44.272;19.892;2023-03-01T02:51:50;43.90;;;25.50;;
10031;SDS011;5056;44.272;19.892;2023-03-01T02:54:23;43.07;;;26.47;;
10031;SDS011;5056;44.272;19.892;2023-03-01T02:56:52;40.67;;;24.53;;
10031;SDS011;5056;44.272;19.892;2023-03-01T02:59:21;33.90;;;23.03;;
10031;SDS011;5056;44.272;19.892;2023-03-01T03:01:51;30.67;;;21.23;;
10031;SDS011;5056;44.272;19.892;2023-03-01T03:04:18;39.83;;;23.97;;
10031;SDS011;5056;44.272;19.892;2023-03-01T03:06:46;33.83;;;21.13;;
10031;SDS011;5056;44.272;19.892;2023-03-01T03:09:15;31.53;;;20.40;;
10031;SDS011;5056;44.272;19.892;2023-03-01T03:11:42;39.17;;;24.03;;
10031;SDS011;5056;44.272;19.892;2023-03-01T03:14:10;35.67;;;22.50;;
10031;SDS011;5056;44.272;19.892;2023-03-01T03:16:39;27.83;;;20.13;;
10031;SDS011;5056;44.272;19.892;2023-03-01T03:19:09;31.40;;;20.97;;
10031;SDS011;5056;44.272;19.892;2023-03-01T03:21:36;25.10;;;15.83;;
10031;SDS011;5056;44.272;19.892;2023-03-01T03:24:03;21.60;;;16.47;;
10031;SDS011;5056;44.272;19.892;2023-03-01T03:26:31;21.77;;;14.33;;
10031;SDS011;5056;44.272;19.892;2023-03-01T03:28:58;20.17;;;14.37;;
10031;SDS011;5056;44.272;19.892;2023-03-01T03:31:32;17.90;;;13.13;;
10031;SDS011;5056;44.272;19.892;2023-03-01T03:34:04;18.80;;;13.30;;
10031;SDS011;5056;44.272;19.892;2023-03-01T03:36:32;17.73;;;14.03;;
10031;SDS011;5056;44.272;19.892;2023-03-01T03:38:59;18.87;;;13.90;;
10031;SDS011;5056;44.272;19.892;2023-03-01T03:41:26;21.57;;;16.00;;
10031;SDS011;5056;44.272;19.892;2023-03-01T03:43:55;22.80;;;16.03;;
10031;SDS011;5056;44.272;19.892;2023-03-01T03:46:21;21.60;;;16.23;;
10031;SDS011;5056;44.272;19.892;2023-03-01T03:48:48;22.00;;;16.33;;
10031;SDS011;5056;44.272;19.892;2023-03-01T03:51:15;21.17;;;16.23;;
10031;SDS011;5056;44.272;19.892;2023-03-01T03:53:45;24.10;;;17.17;;
10031;SDS011;5056;44.272;19.892;2023-03-01T03:56:11;27.03;;;18.10;;
10031;SDS011;5056;44.272;19.892;2023-03-01T03:58:39;24.40;;;17.73;;
10031;SDS011;5056;44.272;19.892;2023-03-01T04:01:06;24.83;;;17.13;;
10031;SDS011;5056;44.272;19.892;2023-03-01T04:03:33;24.40;;;16.50;;
10031;SDS011;5056;44.272;19.892;2023-03-01T04:06:00;23.07;;;16.10;;
10031;SDS011;5056;44.272;19.892;2023-03-01T04:08:27;23.97;;;16.47;;
10031;SDS011;5056;44.272;19.892;2023-03-01T04:10:58;24.47;;;15.87;;
10031;SDS011;5056;44.272;19.892;2023-03-01T04:13:48;22.37;;;16.80;;
10031;SDS011;5056;44.272;19.892;2023-03-01T04:16:15;33.70;;;22.87;;
10031;SDS011;5056;44.272;19.892;2023-03-01T04:18:42;29.17;;;19.33;;
10031;SDS011;5056;44.272;19.892;2023-03-01T04:21:09;32.40;;;21.93;;
10031;SDS011;5056;44.272;19.892;2023-03-01T04:23:37;30.83;;;20.60;;
10031;SDS011;5056;44.272;19.892;2023-03-01T04:26:05;31.57;;;20.93;;
10031;SDS011;5056;44.272;19.892;2023-03-01T04:28:33;31.67;;;21.53;;
10031;SDS011;5056;44.272;19.892;2023-03-01T04:31:02;34.03;;;21.33;;
10031;SDS011;5056;44.272;19.892;2023-03-01T04:33:37;30.47;;;19.57;;
10031;SDS011;5056;44.272;19.892;2023-03-01T04:36:05;55.13;;;31.90;;
10031;SDS011;5056;44.272;19.892;2023-03-01T04:38:33;40.17;;;26.40;;
10031;SDS011;5056;44.272;19.892;2023-03-01T04:41:02;40.37;;;25.13;;
10031;SDS011;5056;44.272;19.892;2023-03-01T04:43:31;37.97;;;24.27;;
10031;SDS011;5056;44.272;19.892;2023-03-01T04:46:00;36.53;;;23.83;;
10031;SDS011;5056;44.272;19.892;2023-03-01T04:48:28;29.90;;;21.07;;
10031;SDS011;5056;44.272;19.892;2023-03-01T04:50:55;27.77;;;19.70;;
10031;SDS011;5056;44.272;19.892;2023-03-01T04:53:23;35.57;;;23.77;;
10031;SDS011;5056;44.272;19.892;2023-03-01T04:55:50;34.30;;;22.67;;
10031;SDS011;5056;44.272;19.892;2023-03-01T04:58:17;31.13;;;22.00;;
10031;SDS011;5056;44.272;19.892;2023-03-01T05:00:45;36.97;;;23.77;;
10031;SDS011;5056;44.272;19.892;2023-03-01T05:03:12;30.50;;;21.00;;
10031;SDS011;5056;44.272;19.892;2023-03-01T05:05:43;28.13;;;20.23;;
10031;SDS011;5056;44.272;19.892;2023-03-01T05:08:11;30.30;;;20.73;;
10031;SDS011;5056;44.272;19.892;2023-03-01T05:10:43;31.60;;;21.70;;
10031;SDS011;5056;44.272;19.892;2023-03-01T05:13:12;27.57;;;19.60;;
10031;SDS011;5056;44.272;19.892;2023-03-01T05:15:40;30.67;;;21.07;;
10031;SDS011;5056;44.272;19.892;2023-03-01T05:18:09;33.27;;;22.20;;
10031;SDS011;5056;44.272;19.892;2023-03-01T05:20:36;41.33;;;26.83;;
10031;SDS011;5056;44.272;19.892;2023-03-01T05:23:03;47.07;;;29.03;;
10031;SDS011;5056;44.272;19.892;2023-03-01T05:25:31;49.50;;;32.30;;
10031;SDS011;5056;44.272;19.892;2023-03-01T05:27:59;47.50;;;31.60;;
10031;SDS011;5056;44.272;19.892;2023-03-01T05:30:29;52.70;;;34.07;;
10031;SDS011;5056;44.272;19.892;2023-03-01T05:32:57;43.37;;;28.27;;
10031;SDS011;5056;44.272;19.892;2023-03-01T05:35:26;48.13;;;30.27;;
10031;SDS011;5056;44.272;19.892;2023-03-01T05:37:54;50.10;;;29.80;;
10031;SDS011;5056;44.272;19.892;2023-03-01T05:40:21;50.03;;;32.07;;
10031;SDS011;5056;44.272;19.892;2023-03-01T05:42:50;45.53;;;28.07;;
10031;SDS011;5056;44.272;19.892;2023-03-01T05:45:18;46.37;;;27.20;;
10031;SDS011;5056;44.272;19.892;2023-03-01T05:47:46;41.77;;;26.63;;
10031;SDS011;5056;44.272;19.892;2023-03-01T05:50:15;37.97;;;26.97;;
10031;SDS011;5056;44.272;19.892;2023-03-01T05:52:49;80.03;;;50.13;;
10031;SDS011;5056;44.272;19.892;2023-03-01T05:58:04;40.20;;;28.07;;
10031;SDS011;5056;44.272;19.892;2023-03-01T06:00:33;58.83;;;38.23;;
10031;SDS011;5056;44.272;19.892;2023-03-01T06:03:00;51.27;;;36.97;;
10031;SDS011;5056;44.272;19.892;2023-03-01T06:05:28;50.93;;;37.13;;
10031;SDS011;5056;44.272;19.892;2023-03-01T06:07:56;41.37;;;30.53;;
10031;SDS011;5056;44.272;19.892;2023-03-01T06:10:25;39.13;;;25.13;;
10031;SDS011;5056;44.272;19.892;2023-03-01T06:12:52;42.57;;;25.90;;
10031;SDS011;5056;44.272;19.892;2023-03-01T06:15:21;36.30;;;24.90;;
10031;SDS011;5056;44.272;19.892;2023-03-01T06:17:48;43.30;;;27.50;;
10031;SDS011;5056;44.272;19.892;2023-03-01T06:20:16;44.57;;;30.53;;
10031;SDS011;5056;44.272;19.892;2023-03-01T06:22:44;44.23;;;28.73;;
10031;SDS011;5056;44.272;19.892;2023-03-01T06:25:17;43.27;;;27.40;;
10031;SDS011;5056;44.272;19.892;2023-03-01T06:27:46;58.97;;;39.27;;
10031;SDS011;5056;44.272;19.892;2023-03-01T06:30:15;45.83;;;31.10;;
10031;SDS011;5056;44.272;19.892;2023-03-01T06:32:42;41.13;;;27.37;;
10031;SDS011;5056;44.272;19.892;2023-03-01T06:35:16;39.53;;;25.80;;
10031;SDS011;5056;44.272;19.892;2023-03-01T06:37:43;42.50;;;30.33;;
10031;SDS011;5056;44.272;19.892;2023-03-01T06:40:11;39.47;;;26.17;;
10031;SDS011;5056;44.272;19.892;2023-03-01T06:42:42;37.53;;;25.97;;
10031;SDS011;5056;44.272;19.892;2023-03-01T06:45:10;29.13;;;21.10;;
10031;SDS011;5056;44.272;19.892;2023-03-01T06:47:43;486.00;;;243.90;;
10031;SDS011;5056;44.272;19.892;2023-03-01T06:50:12;46.23;;;32.80;;
10031;SDS011;5056;44.272;19.892;2023-03-01T06:52:39;36.87;;;28.47;;
10031;SDS011;5056;44.272;19.892;2023-03-01T06:55:06;50.00;;;36.97;;
10031;SDS011;5056;44.272;19.892;2023-03-01T06:57:33;72.23;;;59.50;;
10031;SDS011;5056;44.272;19.892;2023-03-01T07:00:02;43.37;;;36.60;;
10031;SDS011;5056;44.272;19.892;2023-03-01T07:02:29;36.57;;;26.97;;
10031;SDS011;5056;44.272;19.892;2023-03-01T07:04:56;40.97;;;30.93;;
10031;SDS011;5056;44.272;19.892;2023-03-01T07:07:22;49.47;;;37.17;;
10031;SDS011;5056;44.272;19.892;2023-03-01T07:09:50;39.43;;;29.30;;
10031;SDS011;5056;44.272;19.892;2023-03-01T07:12:18;46.10;;;33.13;;
10031;SDS011;5056;44.272;19.892;2023-03-01T07:17:16;41.67;;;28.40;;
10031;SDS011;5056;44.272;19.892;2023-03-01T07:19:43;71.03;;;49.93;;
10031;SDS011;5056;44.272;19.892;2023-03-01T07:22:12;44.23;;;29.83;;
10031;SDS011;5056;44.272;19.892;2023-03-01T07:24:39;72.10;;;39.13;;
10031;SDS011;5056;44.272;19.892;2023-03-01T07:27:07;59.67;;;38.80;;
10031;SDS011;5056;44.272;19.892;2023-03-01T07:29:34;70.23;;;40.07;;
10031;SDS011;5056;44.272;19.892;2023-03-01T07:32:02;66.93;;;38.70;;
10031;SDS011;5056;44.272;19.892;2023-03-01T07:34:31;88.63;;;47.93;;
10031;SDS011;5056;44.272;19.892;2023-03-01T07:36:58;87.47;;;51.50;;
10031;SDS011;5056;44.272;19.892;2023-03-01T07:39:25;66.70;;;37.53;;
10031;SDS011;5056;44.272;19.892;2023-03-01T07:41:52;60.17;;;42.70;;
10031;SDS011;5056;44.272;19.892;2023-03-01T07:44:19;61.60;;;41.33;;
10031;SDS011;5056;44.272;19.892;2023-03-01T07:46:46;71.67;;;43.30;;
10031;SDS011;5056;44.272;19.892;2023-03-01T07:49:13;57.97;;;37.50;;
10031;SDS011;5056;44.272;19.892;2023-03-01T07:51:42;55.97;;;37.70;;
10031;SDS011;5056;44.272;19.892;2023-03-01T07:54:10;77.27;;;46.47;;
10031;SDS011;5056;44.272;19.892;2023-03-01T07:56:38;60.80;;;39.47;;
10031;SDS011;5056;44.272;19.892;2023-03-01T07:59:06;48.50;;;33.60;;
10031;SDS011;5056;44.272;19.892;2023-03-01T08:01:32;43.83;;;28.93;;
10031;SDS011;5056;44.272;19.892;2023-03-01T08:04:01;35.50;;;25.47;;
10031;SDS011;5056;44.272;19.892;2023-03-01T08:06:29;51.90;;;28.70;;
10031;SDS011;5056;44.272;19.892;2023-03-01T08:12:00;39.13;;;25.63;;
10031;SDS011;5056;44.272;19.892;2023-03-01T08:14:27;38.87;;;23.30;;
10031;SDS011;5056;44.272;19.892;2023-03-01T08:16:54;35.33;;;23.53;;
10031;SDS011;5056;44.272;19.892;2023-03-01T08:19:21;43.50;;;25.93;;
10031;SDS011;5056;44.272;19.892;2023-03-01T08:21:48;39.07;;;23.67;;
10031;SDS011;5056;44.272;19.892;2023-03-01T08:24:15;35.67;;;24.17;;
10031;SDS011;5056;44.272;19.892;2023-03-01T08:26:44;40.50;;;23.37;;
10031;SDS011;5056;44.272;19.892;2023-03-01T08:29:11;49.17;;;30.50;;
10031;SDS011;5056;44.272;19.892;2023-03-01T08:31:38;52.07;;;28.93;;
10031;SDS011;5056;44.272;19.892;2023-03-01T08:34:06;55.40;;;30.53;;
10031;SDS011;5056;44.272;19.892;2023-03-01T08:36:36;48.67;;;30.23;;
10031;SDS011;5056;44.272;19.892;2023-03-01T08:39:04;49.30;;;28.63;;
10031;SDS011;5056;44.272;19.892;2023-03-01T08:41:36;62.17;;;35.93;;
10031;SDS011;5056;44.272;19.892;2023-03-01T08:44:08;78.20;;;43.67;;
10031;SDS011;5056;44.272;19.892;2023-03-01T08:46:38;63.37;;;38.43;;
10031;SDS011;5056;44.272;19.892;2023-03-01T08:49:08;64.40;;;37.63;;
10031;SDS011;5056;44.272;19.892;2023-03-01T08:51:36;48.53;;;32.80;;
10031;SDS011;5056;44.272;19.892;2023-03-01T08:54:05;52.50;;;32.90;;
10031;SDS011;5056;44.272;19.892;2023-03-01T08:56:36;73.90;;;41.67;;
10031;SDS011;5056;44.272;19.892;2023-03-01T08:59:03;68.30;;;37.93;;
10031;SDS011;5056;44.272;19.892;2023-03-01T09:01:31;67.33;;;41.07;;
10031;SDS011;5056;44.272;19.892;2023-03-01T09:03:58;48.87;;;30.80;;
10031;SDS011;5056;44.272;19.892;2023-03-01T09:06:26;47.40;;;28.57;;
10031;SDS011;5056;44.272;19.892;2023-03-01T09:08:56;75.57;;;39.87;;
10031;SDS011;5056;44.272;19.892;2023-03-01T09:11:23;64.67;;;36.93;;
10031;SDS011;5056;44.272;19.892;2023-03-01T09:13:51;68.83;;;38.10;;
10031;SDS011;5056;44.272;19.892;2023-03-01T09:16:24;78.63;;;41.93;;
10031;SDS011;5056;44.272;19.892;2023-03-01T09:18:53;74.93;;;43.20;;
10031;SDS011;5056;44.272;19.892;2023-03-01T09:21:39;106.13;;;51.43;;
10031;SDS011;5056;44.272;19.892;2023-03-01T09:24:11;103.40;;;52.13;;
10031;SDS011;5056;44.272;19.892;2023-03-01T09:26:40;112.23;;;53.17;;
10031;SDS011;5056;44.272;19.892;2023-03-01T09:29:07;100.67;;;48.33;;
10031;SDS011;5056;44.272;19.892;2023-03-01T09:31:34;97.30;;;48.20;;
10031;SDS011;5056;44.272;19.892;2023-03-01T09:34:03;91.43;;;45.90;;
10031;SDS011;5056;44.272;19.892;2023-03-01T09:36:29;104.67;;;53.47;;
10031;SDS011;5056;44.272;19.892;2023-03-01T09:38:59;91.97;;;50.53;;
10031;SDS011;5056;44.272;19.892;2023-03-01T09:41:31;100.33;;;51.13;;
10031;SDS011;5056;44.272;19.892;2023-03-01T09:46:45;85.80;;;43.60;;
10031;SDS011;5056;44.272;19.892;2023-03-01T09:49:17;74.17;;;42.10;;
10031;SDS011;5056;44.272;19.892;2023-03-01T09:51:48;86.03;;;48.00;;
10031;SDS011;5056;44.272;19.892;2023-03-01T09:54:22;77.37;;;44.07;;
10031;SDS011;5056;44.272;19.892;2023-03-01T09:56:53;83.07;;;46.43;;
10031;SDS011;5056;44.272;19.892;2023-03-01T09:59:26;76.10;;;44.17;;
10031;SDS011;5056;44.272;19.892;2023-03-01T10:01:57;79.57;;;45.20;;
10031;SDS011;5056;44.272;19.892;2023-03-01T10:04:36;71.93;;;43.57;;
10031;SDS011;5056;44.272;19.892;2023-03-01T10:09:56;60.33;;;36.50;;
10031;SDS011;5056;44.272;19.892;2023-03-01T10:12:25;61.97;;;39.00;;
10031;SDS011;5056;44.272;19.892;2023-03-01T10:14:57;66.90;;;39.17;;
10031;SDS011;5056;44.272;19.892;2023-03-01T10:17:28;58.10;;;35.27;;
10031;SDS011;5056;44.272;19.892;2023-03-01T10:20:11;53.13;;;34.33;;
10031;SDS011;5056;44.272;19.892;2023-03-01T10:22:42;47.43;;;31.13;;
10031;SDS011;5056;44.272;19.892;2023-03-01T10:25:14;46.80;;;29.43;;
10031;SDS011;5056;44.272;19.892;2023-03-01T10:27:43;54.30;;;31.83;;
10031;SDS011;5056;44.272;19.892;2023-03-01T10:30:13;46.93;;;32.33;;
10031;SDS011;5056;44.272;19.892;2023-03-01T10:32:45;51.23;;;34.10;;
10031;SDS011;5056;44.272;19.892;2023-03-01T10:35:19;52.73;;;34.27;;
10031;SDS011;5056;44.272;19.892;2023-03-01T10:37:56;84.90;;;47.53;;
10031;SDS011;5056;44.272;19.892;2023-03-01T10:40:24;58.43;;;34.00;;
10031;SDS011;5056;44.272;19.892;2023-03-01T10:42:51;60.33;;;38.63;;
10031;SDS011;5056;44.272;19.892;2023-03-01T10:45:30;50.07;;;30.43;;
10031;SDS011;5056;44.272;19.892;2023-03-01T10:48:05;54.77;;;36.53;;
10031;SDS011;5056;44.272;19.892;2023-03-01T10:50:40;55.23;;;32.90;;
10031;SDS011;5056;44.272;19.892;2023-03-01T10:53:18;51.93;;;31.97;;
10031;SDS011;5056;44.272;19.892;2023-03-01T10:55:55;57.93;;;40.00;;
10031;SDS011;5056;44.272;19.892;2023-03-01T10:58:24;39.97;;;25.27;;
10031;SDS011;5056;44.272;19.892;2023-03-01T11:00:53;34.47;;;23.43;;
10031;SDS011;5056;44.272;19.892;2023-03-01T11:03:21;38.43;;;23.83;;
10031;SDS011;5056;44.272;19.892;2023-03-01T11:05:55;35.83;;;22.63;;
10031;SDS011;5056;44.272;19.892;2023-03-01T11:08:31;43.93;;;30.07;;
10031;SDS011;5056;44.272;19.892;2023-03-01T11:11:07;37.83;;;26.03;;
10031;SDS011;5056;44.272;19.892;2023-03-01T11:13:54;40.70;;;25.17;;
10031;SDS011;5056;44.272;19.892;2023-03-01T11:16:29;40.33;;;24.90;;
10031;SDS011;5056;44.272;19.892;2023-03-01T11:19:00;42.33;;;24.77;;
10031;SDS011;5056;44.272;19.892;2023-03-01T11:24:24;41.00;;;29.37;;
10031;SDS011;5056;44.272;19.892;2023-03-01T11:26:56;39.87;;;26.70;;
10031;SDS011;5056;44.272;19.892;2023-03-01T11:29:29;54.07;;;34.30;;
10031;SDS011;5056;44.272;19.892;2023-03-01T11:32:00;48.83;;;30.83;;
10031;SDS011;5056;44.272;19.892;2023-03-01T11:34:34;42.43;;;29.03;;
10031;SDS011;5056;44.272;19.892;2023-03-01T11:37:12;44.90;;;29.63;;
10031;SDS011;5056;44.272;19.892;2023-03-01T11:39:50;41.53;;;25.00;;
10031;SDS011;5056;44.272;19.892;2023-03-01T11:42:24;37.43;;;24.73;;
10031;SDS011;5056;44.272;19.892;2023-03-01T11:45:06;37.10;;;24.57;;
10031;SDS011;5056;44.272;19.892;2023-03-01T11:47:39;42.30;;;25.13;;
10031;SDS011;5056;44.272;19.892;2023-03-01T11:50:15;40.37;;;24.87;;
10031;SDS011;5056;44.272;19.892;2023-03-01T11:52:52;43.60;;;27.63;;
10031;SDS011;5056;44.272;19.892;2023-03-01T11:55:29;33.10;;;23.97;;
10031;SDS011;5056;44.272;19.892;2023-03-01T11:58:09;34.37;;;23.03;;
10031;SDS011;5056;44.272;19.892;2023-03-01T12:00:47;34.27;;;24.83;;
10031;SDS011;5056;44.272;19.892;2023-03-01T12:03:28;36.13;;;24.40;;
10031;SDS011;5056;44.272;19.892;2023-03-01T12:06:12;36.97;;;24.73;;
10031;SDS011;5056;44.272;19.892;2023-03-01T12:09:12;40.90;;;26.97;;
10031;SDS011;5056;44.272;19.892;2023-03-01T12:11:53;50.07;;;32.70;;
10031;SDS011;5056;44.272;19.892;2023-03-01T12:14:39;47.03;;;29.73;;
10031;SDS011;5056;44.272;19.892;2023-03-01T12:20:20;49.17;;;30.23;;
10031;SDS011;5056;44.272;19.892;2023-03-01T12:23:02;48.90;;;31.23;;
10031;SDS011;5056;44.272;19.892;2023-03-01T12:25:53;45.40;;;28.60;;
10031;SDS011;5056;44.272;19.892;2023-03-01T12:34:31;47.27;;;32.77;;
10031;SDS011;5056;44.272;19.892;2023-03-01T12:37:11;54.43;;;35.63;;
10031;SDS011;5056;44.272;19.892;2023-03-01T12:39:51;51.23;;;32.83;;
10031;SDS011;5056;44.272;19.892;2023-03-01T12:42:33;58.17;;;35.37;;
10031;SDS011;5056;44.272;19.892;2023-03-01T12:48:08;57.40;;;39.57;;
10031;SDS011;5056;44.272;19.892;2023-03-01T12:50:51;58.70;;;39.17;;
10031;SDS011;5056;44.272;19.892;2023-03-01T12:53:22;80.60;;;50.57;;
10031;SDS011;5056;44.272;19.892;2023-03-01T12:55:50;103.80;;;63.63;;
10031;SDS011;5056;44.272;19.892;2023-03-01T12:58:26;100.93;;;62.27;;
10031;SDS011;5056;44.272;19.892;2023-03-01T13:01:00;98.27;;;62.63;;
10031;SDS011;5056;44.272;19.892;2023-03-01T13:03:32;102.03;;;61.23;;
10031;SDS011;5056;44.272;19.892;2023-03-01T13:06:11;97.23;;;60.93;;
10031;SDS011;5056;44.272;19.892;2023-03-01T13:08:48;104.47;;;61.67;;
10031;SDS011;5056;44.272;19.892;2023-03-01T13:11:18;97.23;;;61.20;;
10031;SDS011;5056;44.272;19.892;2023-03-01T13:13:48;109.73;;;66.43;;
10031;SDS011;5056;44.272;19.892;2023-03-01T13:16:20;110.10;;;68.20;;
10031;SDS011;5056;44.272;19.892;2023-03-01T13:18:49;114.17;;;66.70;;
10031;SDS011;5056;44.272;19.892;2023-03-01T13:21:29;110.60;;;67.27;;
10031;SDS011;5056;44.272;19.892;2023-03-01T13:23:56;108.03;;;64.03;;
10031;SDS011;5056;44.272;19.892;2023-03-01T13:26:23;110.73;;;60.50;;
10031;SDS011;5056;44.272;19.892;2023-03-01T13:28:56;92.73;;;56.77;;
10031;SDS011;5056;44.272;19.892;2023-03-01T13:37:34;72.47;;;45.30;;
10031;SDS011;5056;44.272;19.892;2023-03-01T13:40:04;71.73;;;46.27;;
10031;SDS011;5056;44.272;19.892;2023-03-01T13:42:54;71.60;;;47.40;;
10031;SDS011;5056;44.272;19.892;2023-03-01T13:45:24;80.10;;;49.47;;
10031;SDS011;5056;44.272;19.892;2023-03-01T13:48:01;83.27;;;54.20;;
10031;SDS011;5056;44.272;19.892;2023-03-01T13:50:33;74.60;;;48.40;;
10031;SDS011;5056;44.272;19.892;2023-03-01T13:53:05;73.50;;;48.07;;
10031;SDS011;5056;44.272;19.892;2023-03-01T13:55:36;237.57;;;161.63;;
10031;SDS011;5056;44.272;19.892;2023-03-01T13:58:13;151.07;;;111.20;;
10031;SDS011;5056;44.272;19.892;2023-03-01T14:00:47;96.10;;;70.63;;
10031;SDS011;5056;44.272;19.892;2023-03-01T14:03:15;88.60;;;61.47;;
10031;SDS011;5056;44.272;19.892;2023-03-01T14:05:56;82.00;;;56.53;;
10031;SDS011;5056;44.272;19.892;2023-03-01T14:08:25;88.27;;;56.00;;
10031;SDS011;5056;44.272;19.892;2023-03-01T14:11:05;90.97;;;59.30;;
10031;SDS011;5056;44.272;19.892;2023-03-01T14:14:03;84.67;;;53.33;;
10031;SDS011;5056;44.272;19.892;2023-03-01T14:16:44;90.50;;;56.53;;
10031;SDS011;5056;44.272;19.892;2023-03-01T14:19:17;92.77;;;57.87;;
10031;SDS011;5056;44.272;19.892;2023-03-01T14:21:47;90.93;;;57.70;;
10031;SDS011;5056;44.272;19.892;2023-03-01T14:24:17;95.03;;;58.33;;
10031;SDS011;5056;44.272;19.892;2023-03-01T14:26:46;93.00;;;59.23;;
10031;SDS011;5056;44.272;19.892;2023-03-01T14:29:26;98.23;;;61.50;;
10031;SDS011;5056;44.272;19.892;2023-03-01T14:31:55;95.50;;;59.00;;
10031;SDS011;5056;44.272;19.892;2023-03-01T14:34:35;101.63;;;67.03;;
10031;SDS011;5056;44.272;19.892;2023-03-01T14:37:17;101.80;;;63.37;;
10031;SDS011;5056;44.272;19.892;2023-03-01T14:39:49;108.23;;;68.17;;
10031;SDS011;5056;44.272;19.892;2023-03-01T14:42:21;104.60;;;60.73;;
10031;SDS011;5056;44.272;19.892;2023-03-01T14:44:49;94.30;;;57.93;;
10031;SDS011;5056;44.272;19.892;2023-03-01T14:50:04;85.47;;;54.60;;
10031;SDS011;5056;44.272;19.892;2023-03-01T14:55:53;95.80;;;54.70;;
10031;SDS011;5056;44.272;19.892;2023-03-01T14:58:21;82.80;;;50.13;;
10031;SDS011;5056;44.272;19.892;2023-03-01T15:00:51;83.13;;;48.60;;
10031;SDS011;5056;44.272;19.892;2023-03-01T15:03:25;88.57;;;53.00;;
10031;SDS011;5056;44.272;19.892;2023-03-01T15:05:54;91.30;;;53.47;;
10031;SDS011;5056;44.272;19.892;2023-03-01T15:08:28;79.13;;;47.53;;
10031;SDS011;5056;44.272;19.892;2023-03-01T15:10:58;78.70;;;48.03;;
10031;SDS011;5056;44.272;19.892;2023-03-01T15:13:31;83.40;;;52.70;;
10031;SDS011;5056;44.272;19.892;2023-03-01T15:16:09;156.83;;;100.83;;
10031;SDS011;5056;44.272;19.892;2023-03-01T15:18:42;115.93;;;74.80;;
10031;SDS011;5056;44.272;19.892;2023-03-01T15:21:15;113.73;;;74.87;;
10031;SDS011;5056;44.272;19.892;2023-03-01T15:23:54;132.07;;;86.93;;
10031;SDS011;5056;44.272;19.892;2023-03-01T15:26:22;122.60;;;79.60;;
10031;SDS011;5056;44.272;19.892;2023-03-01T15:28:52;127.33;;;73.90;;